Oliver Schuster

Olheiro - Werder Bremen
23 Abr 2028
Domingo
Processo

Personalidade

Adaptabilidade (5) Ambição (13) Controvérsia (16) Lealdade (11) Pressão (19) Profissionalismo (5) Espírito Esportivo (3) Temperamento (14)

Perfil

Estilo de Treinamento Democrático
Licença Continental C
Determinação 10
Gestão de Pessoas 8
Motivação 5
Disciplina 14
Satisfação no Trabalho
100%
Fadiga
0%
Função Olheiro
Salário 77.5K p/s
Contrato 14.03.2029

Desempenho

Comportamento Bom
Eficácia do Treinamento
54%
Desenvolvimento do Jogador
55%
Prevenção de Lesões
45%
Implementação Tática
50%

Eventos Recentes

Participou de uma reunião de recrutamento agora
Participou de uma reunião de recrutamento 7d atrás
Participou de uma reunião de recrutamento 7d atrás
Recomendou um alvo de transferência 7d atrás
Observou uma partida 7d atrás
Participou de uma reunião de recrutamento 14d atrás
Recomendou um alvo de transferência 14d atrás
Observou uma partida 14d atrás

Monitorando agora

56
Jogador Clube Status Habilidade Confiança Observado Última observação Último voto
Jeremy Arévalo VfB Stuttgart Ativo 135 / 134 62% 1 24.01.2028 Aprovar
Maximilian Beier Borussia Dortmund Ativo 141 / 155 58% 1 01.06.2027 -
Saïd El Mala Köln Ativo 135 / 143 40% 4 31.05.2027 -
Samuele di Benedetto Twente Ativo 113 / 120 40% 3 31.05.2027 -
Gonçalo Oliveira Benfica Ativo 120 / 114 40% 2 28.05.2027 -
Germán Barbas Burgos Ativo 106 / 113 40% 1 28.05.2027 -
Kazunari Kita Real Sociedad Ativo 88 / 103 40% 1 26.05.2027 -
Ibrahim Maza Bayer Leverkusen Ativo 149 / 152 40% 4 25.05.2027 -
Mohamadou Kanté Crawley Town Ativo 126 / 119 40% 2 25.05.2027 -
Ayoub Oufkir AZ Ativo 127 / 132 40% 2 24.05.2027 -
Victor Froholdt Porto Ativo 148 / 155 40% 1 20.05.2027 -
João Teixeira Porto Ativo 118 / 117 40% 1 20.05.2027 -
Gorka Gorosabel Real Sociedad Ativo 106 / 113 40% 2 18.05.2027 -
Nikolaus Wurmbrand Girona Ativo 117 / 127 40% 1 18.05.2027 -
Yussif Saidu Zaragoza Ativo 119 / 125 40% 2 17.05.2027 -
Yusi Alavés Ativo 130 / 137 40% 2 17.05.2027 -
Toni Tamarit Alverca Ativo 119 / 121 40% 3 14.05.2027 -
Caleb Yirenkyi Coventry City Ativo 131 / 137 40% 1 09.05.2027 -
Simone Kosijer Triestina Ativo 84 / 107 40% 1 09.05.2027 -
Ollie Scarles West Ham United Ativo 136 / 137 40% 3 08.05.2027 -
Louis Leroux FC Nantes Ativo 138 / 129 40% 2 07.05.2027 -
Jesús Rodríguez Como Ativo 140 / 150 40% 2 01.05.2027 -
David Mella Deportivo La Coruña Ativo 120 / 135 40% 1 01.05.2027 -
Salvador Blopá Sporting CP Ativo 105 / 119 40% 2 30.04.2027 -
Jorrel Hato Chelsea Ativo 156 / 154 40% 1 30.04.2027 -
Olívio Tomé Benfica Ativo 107 / 114 40% 1 29.04.2027 -
Chemsdine Talbi Sunderland Ativo 137 / 148 40% 6 28.04.2027 -
Manu Rodríguez Gijón Ativo 100 / 105 40% 1 28.04.2027 -
Mathys Tel Tottenham Ativo 136 / 150 40% 1 20.04.2027 -
Monty Batlhabane Polokwane City Ativo 100 / 104 40% 1 19.04.2027 -
Pau Cubarsí Real Sociedad Ativo 159 / 167 40% 1 14.04.2027 -
Emirhan Başyiğit Sivasspor Ativo 107 / 113 40% 1 14.04.2027 -
Assane Diao Como Ativo 138 / 146 40% 1 10.04.2027 -
Dehmaine Tabibou FC Nantes Ativo 114 / 128 40% 2 08.04.2027 -
Givairo Read Feyenoord Ativo 146 / 149 40% 1 08.04.2027 -
Ivan Giraldo Valencia Ativo 124 / 131 40% 1 07.04.2027 -
Bence Dárdai VfL Wolfsburg Ativo 117 / 136 40% 1 07.04.2027 -
Kirill Glebov CSKA Moscow Ativo 118 / 128 40% 1 02.04.2027 -
Antonio Nusa RB Leipzig Ativo 137 / 152 40% 3 01.04.2027 -
Izan Merino Málaga Ativo 126 / 125 40% 1 01.04.2027 -
James Dornelly Peterborough United Ativo 103 / 104 40% 1 01.04.2027 -
Christian Mawissa Monaco Ativo 140 / 130 40% 2 26.03.2027 -
Pau Navarro Villarreal Ativo 146 / 151 40% 1 26.03.2027 -
Jan Bürger Northampton Town Ativo 113 / 117 40% 1 22.03.2027 -
Pau Víctor Braga Ativo 140 / 142 40% 1 19.12.2026 -
Georginio Rutter Brighton Ativo 144 / 147 40% 2 15.12.2026 -
Rilind Nivokazi Sion Ativo 108 / 114 40% 2 11.12.2026 -
Adam Hložek TSG Hoffenheim Ativo 147 / 140 40% 1 10.12.2026 Mais informações
Maurits Kjærgaard Red Bull Salzburg Ativo 135 / 129 40% 2 07.12.2026 -
Christantus Uche Getafe Ativo 133 / 136 40% 1 03.12.2026 -
Yorbe Vertessen Red Bull Salzburg Ativo 130 / 123 40% 1 01.12.2026 -
Andrés Martín Racing Santander Ativo 129 / 129 40% 1 28.11.2026 -
Andrin Hunziker St. Gallen Ativo 110 / 113 40% 1 27.11.2026 -
Matteo di Giusto Luzern Ativo 130 / 126 40% 1 21.11.2026 -
Sanel Šaljić Austria Wien Ativo 117 / 126 40% 1 03.11.2026 -
Han-Noah Massengo FC Augsburg Ativo 135 / 131 55% 1 24.08.2026 -